Terminal Aerodrome Forecast
Issued by NWS

Home | Current Version | Previous Version | Text Only | Print | Product List | Glossary On
Versions: 1 2 3 4 5 6 7 8 9 10 11 12 13 14 15
000
FTUS46 KLOX 051730
TAFVNY
TAF
KVNY 051730Z 0518/0618 VRB03KT 6SM HZ FEW012
     FM051900 14010KT P6SM SKC
     FM060300 VRB03KT P6SM SKC
     FM060800 VRB03KT P6SM OVC010
     FM061700 13006KT P6SM OVC012=

USA.gov is the U.S. government's official web portal to all federal, state and local government web resources and services.